createdAt,value
2022-11-28T00:00:46.932Z,98548.78
2022-11-28T00:05:48.930Z,98545.50
2022-11-28T00:10:50.919Z,98542.81
2022-11-28T00:16:00.248Z,98526.19
2022-11-28T00:21:07.954Z,98522.53
2022-11-28T00:26:22.057Z,98513.97
2022-11-28T00:31:30.280Z,98505.94
2022-11-28T00:36:32.215Z,98504.34
2022-11-28T00:41:35.426Z,98496.91
2022-11-28T00:46:37.311Z,98494.22
2022-11-28T00:51:39.552Z,98487.13
2022-11-28T00:56:41.447Z,98491.41
2022-11-28T01:01:44.388Z,98483.03
2022-11-28T01:06:49.068Z,98476.38
2022-11-28T01:11:53.845Z,98474.81
2022-11-28T01:16:55.685Z,98473.84
2022-11-28T01:21:57.545Z,98467.47
2022-11-28T01:26:59.516Z,98467.63
2022-11-28T01:32:01.416Z,98460.19
2022-11-28T01:37:03.375Z,98449.25
2022-11-28T01:42:05.210Z,98452.25
2022-11-28T01:47:07.068Z,98442.13
2022-11-28T01:52:13.443Z,98442.91
2022-11-28T01:57:19.792Z,98436.75
2022-11-28T02:02:36.928Z,98429.78
2022-11-28T02:07:40.966Z,98420.47
2022-11-28T02:13:05.641Z,98406.25
2022-11-28T02:18:31.370Z,98413.50
2022-11-28T02:23:38.780Z,98401.97
2022-11-28T02:29:11.348Z,98394.56
2022-11-28T02:34:21.756Z,98391.88
2022-11-28T02:39:41.646Z,98391.88
2022-11-28T02:44:55.832Z,98388.69
2022-11-28T02:50:12.144Z,98380.94
2022-11-28T02:55:15.327Z,98375.06
2022-11-28T03:00:23.848Z,98366.88
2022-11-28T03:05:43.163Z,98366.19
2022-11-28T03:10:57.170Z,98362.72
2022-11-28T03:16:16.869Z,98363.34
2022-11-28T03:21:33.045Z,98354.81
2022-11-28T03:26:47.020Z,98350.53
2022-11-28T03:31:57.599Z,98341.81
2022-11-28T03:37:11.612Z,98335.97
2022-11-28T03:42:21.214Z,98340.03
2022-11-28T03:47:28.402Z,98333.59
2022-11-28T03:52:35.589Z,98329.03
2022-11-28T03:57:47.762Z,98328.22
2022-11-28T04:03:02.407Z,98319.50
2022-11-28T04:08:19.433Z,98337.13
2022-11-28T04:13:26.186Z,98321.16
2022-11-28T04:18:40.237Z,98323.97
2022-11-28T04:23:45.042Z,98318.25
2022-11-28T04:28:50.072Z,98322.66
2022-11-28T04:33:58.374Z,98317.88
2022-11-28T04:39:01.635Z,98309.38
2022-11-28T04:44:13.646Z,98306.00
2022-11-28T04:49:15.610Z,98302.06
2022-11-28T04:54:33.631Z,98308.97
2022-11-28T04:59:35.582Z,98289.75
2022-11-28T05:04:38.502Z,98292.31
2022-11-28T05:09:40.359Z,98284.53
2022-11-28T05:14:42.488Z,98291.03
2022-11-28T05:19:44.413Z,98287.53
2022-11-28T05:24:46.422Z,98286.94
2022-11-28T05:29:52.221Z,98277.78
2022-11-28T05:34:54.279Z,98282.34
2022-11-28T05:39:56.152Z,98271.63
2022-11-28T05:44:58.018Z,98272.41
2022-11-28T05:50:00.018Z,98275.09
2022-11-28T05:55:01.881Z,98281.16
2022-11-28T06:00:04.458Z,98265.84
2022-11-28T06:05:40.421Z,98255.63
2022-11-28T06:10:35.859Z,98255.31
2022-11-28T06:15:38.650Z,98247.56
2022-11-28T06:20:40.622Z,98243.28
2022-11-28T06:25:42.453Z,98248.53
2022-11-28T06:30:44.688Z,98247.91
2022-11-28T06:35:46.482Z,98248.28
2022-11-28T06:40:48.277Z,98242.91
2022-11-28T06:45:50.152Z,98244.47
2022-11-28T06:50:53.017Z,98243.38
2022-11-28T06:55:55.037Z,98232.34
2022-11-28T07:00:56.900Z,98237.56
2022-11-28T07:06:04.220Z,98231.91
2022-11-28T07:11:12.946Z,98225.31
2022-11-28T07:16:21.332Z,98217.75
2022-11-28T07:21:24.150Z,98217.13
2022-11-28T07:26:26.056Z,98208.28
2022-11-28T07:31:32.250Z,98215.53
2022-11-28T07:36:34.422Z,98205.13
2022-11-28T07:41:36.325Z,98190.28
2022-11-28T07:46:39.523Z,98183.50
2022-11-28T07:51:42.311Z,98195.03
2022-11-28T07:57:11.514Z,98185.88
2022-11-28T08:02:06.113Z,98177.19
2022-11-28T08:07:07.955Z,98172.16
2022-11-28T08:12:09.744Z,98172.31
2022-11-28T08:17:11.558Z,98176.28
2022-11-28T08:22:13.468Z,98175.50
2022-11-28T08:27:15.244Z,98172.66
2022-11-28T08:32:17.300Z,98180.09
2022-11-28T08:37:19.123Z,98167.66
2022-11-28T08:42:21.466Z,98161.97
2022-11-28T08:47:23.355Z,98166.09
2022-11-28T08:52:25.549Z,98163.56
2022-11-28T08:57:27.345Z,98169.72
2022-11-28T09:02:29.219Z,98170.84
2022-11-28T09:07:31.196Z,98183.31
2022-11-28T09:12:33.037Z,98194.84
2022-11-28T09:17:34.842Z,98210.31
2022-11-28T09:22:36.688Z,98206.38
2022-11-28T09:27:38.508Z,98195.34
2022-11-28T09:32:40.441Z,98183.94
2022-11-28T09:37:42.373Z,98180.00
2022-11-28T09:42:45.788Z,98163.25
2022-11-28T09:47:52.250Z,98151.41
2022-11-28T09:53:02.575Z,98159.16
2022-11-28T09:58:24.542Z,98163.56
2022-11-28T10:03:39.563Z,98155.19
2022-11-28T10:09:02.972Z,98153.91
2022-11-28T10:14:39.958Z,98137.00
2022-11-28T10:20:09.361Z,98127.38
2022-11-28T10:25:22.815Z,98137.66
2022-11-28T10:30:27.488Z,98142.38
2022-11-28T10:35:50.883Z,98137.31
2022-11-28T10:41:13.442Z,98134.59
2022-11-28T10:46:18.011Z,98138.88
2022-11-28T10:51:19.844Z,98130.97
2022-11-28T10:56:40.410Z,98132.31
2022-11-28T11:01:46.004Z,98129.03
2022-11-28T11:07:20.223Z,98130.63
2022-11-28T11:12:30.722Z,98135.34
2022-11-28T11:17:36.582Z,98130.75
2022-11-28T11:22:38.615Z,98120.06
2022-11-28T11:28:03.550Z,98098.31
2022-11-28T11:33:13.958Z,98091.88
2022-11-28T11:38:21.512Z,98099.00
2022-11-28T11:43:29.331Z,98097.09
2022-11-28T11:48:41.183Z,98106.47
2022-11-28T11:53:44.174Z,98116.09
2022-11-28T11:58:54.388Z,98122.53
2022-11-28T12:04:23.669Z,98117.38
2022-11-28T12:09:42.281Z,98114.84
2022-11-28T12:14:44.956Z,98107.28
2022-11-28T12:20:02.520Z,98104.41
2022-11-28T12:25:10.500Z,98102.16
2022-11-28T12:30:44.929Z,98106.09
2022-11-28T12:36:03.303Z,98095.47
2022-11-28T12:41:05.441Z,98113.34
2022-11-28T12:46:22.459Z,98108.09
2022-11-28T12:51:59.434Z,98117.56
2022-11-28T12:57:36.762Z,98107.44
2022-11-28T13:03:03.150Z,98108.78
2022-11-28T13:08:23.649Z,98102.00
2022-11-28T13:13:35.474Z,98104.72
2022-11-28T13:18:46.000Z,98105.06
2022-11-28T13:24:07.131Z,98099.63
2022-11-28T13:29:20.864Z,98088.66
2022-11-28T13:34:23.258Z,98097.72
2022-11-28T13:39:27.842Z,98096.28
2022-11-28T13:44:59.331Z,98093.78
2022-11-28T13:50:25.834Z,98090.25
2022-11-28T13:55:36.836Z,98088.50
2022-11-28T14:00:40.988Z,98081.53
2022-11-28T14:05:45.408Z,98094.88
2022-11-28T14:10:58.080Z,98102.34
2022-11-28T14:16:09.643Z,98099.66
2022-11-28T14:21:23.561Z,98106.78
2022-11-28T14:26:35.314Z,98096.13
2022-11-28T14:31:39.076Z,98089.00
2022-11-28T14:36:43.162Z,98100.19
2022-11-28T14:42:03.935Z,98092.47
2022-11-28T14:47:13.308Z,98095.34
2022-11-28T14:57:45.008Z,98100.03
2022-11-28T15:02:56.259Z,98100.81
2022-11-28T15:08:25.541Z,98100.69
2022-11-28T15:13:30.557Z,98099.09
2022-11-28T15:18:33.494Z,98099.44
2022-11-28T15:23:38.544Z,98097.53
2022-11-28T15:28:40.421Z,98101.34
2022-11-28T15:33:42.444Z,98105.13
2022-11-28T15:38:44.356Z,98107.50
2022-11-28T15:43:46.504Z,98100.69
2022-11-28T15:48:50.834Z,98104.28
2022-11-28T15:53:52.795Z,98100.31
2022-11-28T15:58:55.064Z,98093.22
2022-11-28T16:04:07.784Z,98104.13
2022-11-28T16:09:18.936Z,98098.97
2022-11-28T16:14:31.821Z,98100.13
2022-11-28T16:19:36.661Z,98096.84
2022-11-28T16:24:50.484Z,98099.66
2022-11-28T16:29:52.357Z,98091.31
2022-11-28T16:34:55.727Z,98098.78
2022-11-28T16:40:14.830Z,98098.91
2022-11-28T16:45:21.226Z,98092.75
2022-11-28T16:50:25.206Z,98083.47
2022-11-28T16:55:38.647Z,98090.44
2022-11-28T17:01:03.003Z,98102.63
2022-11-28T17:06:04.966Z,98104.19
2022-11-28T17:11:06.862Z,98100.06
2022-11-28T17:16:17.744Z,98092.31
2022-11-28T17:21:33.267Z,98095.94
2022-11-28T17:26:35.077Z,98093.59
2022-11-28T17:31:37.472Z,98094.69
2022-11-28T17:36:39.340Z,98089.97
2022-11-28T17:41:41.378Z,98091.06
2022-11-28T17:46:43.198Z,98100.56
2022-11-28T17:51:45.755Z,98096.75
2022-11-28T17:56:52.650Z,98091.53
2022-11-28T18:01:54.628Z,98101.63
2022-11-28T18:07:00.191Z,98094.81
2022-11-28T18:12:01.980Z,98093.53
2022-11-28T18:17:04.264Z,98087.03
2022-11-28T18:22:08.579Z,98086.06
2022-11-28T18:27:10.384Z,98089.84
2022-11-28T18:32:12.325Z,98096.78
2022-11-28T18:37:14.151Z,98106.59
2022-11-28T18:42:17.525Z,98104.56
2022-11-28T18:47:19.623Z,98107.75
2022-11-28T18:52:21.464Z,98108.66
2022-11-28T18:57:23.611Z,98098.91
2022-11-28T19:02:25.567Z,98091.88
2022-11-28T19:07:27.539Z,98087.47
2022-11-28T19:12:29.430Z,98087.22
2022-11-28T19:17:31.344Z,98082.47
2022-11-28T19:22:35.716Z,98095.09
2022-11-28T19:27:37.717Z,98097.25
2022-11-28T19:32:39.537Z,98094.56
2022-11-28T19:37:42.258Z,98095.63
2022-11-28T19:42:44.060Z,98105.78
2022-11-28T19:47:48.655Z,98090.47
2022-11-28T19:52:50.625Z,98085.09
2022-11-28T19:57:52.904Z,98097.03
2022-11-28T20:02:55.071Z,98111.00
2022-11-28T20:07:58.616Z,98106.72
2022-11-28T20:13:00.764Z,98110.53
2022-11-28T20:18:03.779Z,98108.94
2022-11-28T20:23:06.603Z,98114.06
2022-11-28T20:28:08.699Z,98118.78
2022-11-28T20:33:10.774Z,98118.19
2022-11-28T20:38:12.847Z,98119.06
2022-11-28T20:43:14.681Z,98121.13
2022-11-28T20:48:16.529Z,98118.63
2022-11-28T20:53:23.679Z,98123.06
2022-11-28T20:58:28.750Z,98129.41
2022-11-28T21:03:30.578Z,98134.16
2022-11-28T21:08:33.835Z,98130.22
2022-11-28T21:13:35.831Z,98136.38
2022-11-28T21:18:39.283Z,98131.31
2022-11-28T21:23:42.377Z,98128.47
2022-11-28T21:28:45.934Z,98130.34
2022-11-28T21:33:49.194Z,98133.19
2022-11-28T21:38:56.449Z,98129.41
2022-11-28T21:43:59.766Z,98126.72
2022-11-28T21:49:02.986Z,98131.28
2022-11-28T21:54:04.957Z,98129.09
2022-11-28T21:59:07.095Z,98128.44
2022-11-28T22:04:10.740Z,98121.78
2022-11-28T22:09:13.567Z,98120.03
2022-11-28T22:14:15.786Z,98123.66
2022-11-28T22:19:17.814Z,98125.69
2022-11-28T22:24:19.776Z,98124.91
2022-11-28T22:29:22.001Z,98129.81
2022-11-28T22:34:24.021Z,98128.97
2022-11-28T22:39:25.915Z,98137.22
2022-11-28T22:44:27.911Z,98136.09
2022-11-28T22:49:29.830Z,98136.59
2022-11-28T22:54:31.811Z,98141.31
2022-11-28T22:59:35.305Z,98146.69
2022-11-28T23:04:38.081Z,98137.34
2022-11-28T23:09:40.202Z,98143.06
2022-11-28T23:14:42.444Z,98142.44
2022-11-28T23:19:44.759Z,98150.69
2022-11-28T23:24:46.638Z,98137.56
2022-11-28T23:29:48.508Z,98145.78
2022-11-28T23:34:50.473Z,98145.78
2022-11-28T23:39:52.314Z,98136.63
2022-11-28T23:44:54.174Z,98146.59
2022-11-28T23:49:56.017Z,98147.53
2022-11-28T23:54:57.929Z,98143.41
